sensor_id;sensor_type;location;lat;lon;timestamp;pressure;altitude;pressure_sealevel;temperature;humidity
52469;BME280;38381;53.688;10.776;2023-01-30T00:02:27;100546.88;;;3.04;94.56
52469;BME280;38381;53.688;10.776;2023-01-30T00:07:28;100569.47;;;3.15;93.69
52469;BME280;38381;53.688;10.776;2023-01-30T00:12:28;100549.81;;;3.14;93.72
52469;BME280;38381;53.688;10.776;2023-01-30T00:17:28;100541.25;;;3.14;93.52
52469;BME280;38381;53.688;10.776;2023-01-30T00:22:29;100535.44;;;3.19;93.67
52469;BME280;38381;53.688;10.776;2023-01-30T00:27:30;100526.31;;;3.28;94.11
52469;BME280;38381;53.688;10.776;2023-01-30T00:32:30;100519.13;;;3.17;94.10
52469;BME280;38381;53.688;10.776;2023-01-30T00:37:31;100506.69;;;3.28;93.78
52469;BME280;38381;53.688;10.776;2023-01-30T00:42:31;100483.91;;;3.37;93.82
52469;BME280;38381;53.688;10.776;2023-01-30T00:47:50;100471.25;;;3.43;93.47
52469;BME280;38381;53.688;10.776;2023-01-30T00:52:51;100448.94;;;3.39;93.84
52469;BME280;38381;53.688;10.776;2023-01-30T00:57:51;100433.09;;;3.24;94.64
52469;BME280;38381;53.688;10.776;2023-01-30T01:02:51;100428.41;;;3.39;94.70
52469;BME280;38381;53.688;10.776;2023-01-30T01:07:52;100405.53;;;3.46;94.79
52469;BME280;38381;53.688;10.776;2023-01-30T01:12:53;100407.22;;;3.45;95.07
52469;BME280;38381;53.688;10.776;2023-01-30T01:17:53;100395.41;;;3.50;95.26
52469;BME280;38381;53.688;10.776;2023-01-30T01:22:55;100369.88;;;3.53;96.09
52469;BME280;38381;53.688;10.776;2023-01-30T01:27:56;100367.66;;;3.66;95.41
52469;BME280;38381;53.688;10.776;2023-01-30T01:32:56;100350.41;;;3.60;95.13
52469;BME280;38381;53.688;10.776;2023-01-30T01:37:57;100346.34;;;3.68;96.20
52469;BME280;38381;53.688;10.776;2023-01-30T01:42:57;100335.28;;;3.69;96.04
52469;BME280;38381;53.688;10.776;2023-01-30T01:48:02;100325.03;;;3.71;96.55
52469;BME280;38381;53.688;10.776;2023-01-30T01:53:05;100321.72;;;3.75;96.42
52469;BME280;38381;53.688;10.776;2023-01-30T01:58:14;100310.59;;;3.74;96.99
52469;BME280;38381;53.688;10.776;2023-01-30T02:03:19;100309.91;;;3.80;96.99
52469;BME280;38381;53.688;10.776;2023-01-30T02:08:25;100292.91;;;3.83;97.66
52469;BME280;38381;53.688;10.776;2023-01-30T02:13:26;100276.69;;;3.85;97.60
52469;BME280;38381;53.688;10.776;2023-01-30T02:18:29;100271.81;;;3.95;97.81
52469;BME280;38381;53.688;10.776;2023-01-30T02:23:56;100275.13;;;3.90;98.58
52469;BME280;38381;53.688;10.776;2023-01-30T02:45:25;100234.56;;;4.11;99.41
52469;BME280;38381;53.688;10.776;2023-01-30T02:55:40;100218.47;;;4.17;99.10
52469;BME280;38381;53.688;10.776;2023-01-30T03:01:17;100210.91;;;4.23;99.78
52469;BME280;38381;53.688;10.776;2023-01-30T03:06:36;100198.75;;;4.16;99.67
52469;BME280;38381;53.688;10.776;2023-01-30T03:12:11;100170.78;;;4.27;99.19
52469;BME280;38381;53.688;10.776;2023-01-30T03:17:20;100156.41;;;4.35;99.33
52469;BME280;38381;53.688;10.776;2023-01-30T03:22:21;100158.03;;;4.31;98.59
52469;BME280;38381;53.688;10.776;2023-01-30T03:27:21;100141.19;;;4.44;99.26
52469;BME280;38381;53.688;10.776;2023-01-30T03:32:22;100129.22;;;4.43;99.04
52469;BME280;38381;53.688;10.776;2023-01-30T03:37:22;100119.31;;;4.63;99.19
52469;BME280;38381;53.688;10.776;2023-01-30T03:42:23;100129.56;;;4.60;98.79
52469;BME280;38381;53.688;10.776;2023-01-30T03:47:23;100132.34;;;4.71;98.73
52469;BME280;38381;53.688;10.776;2023-01-30T03:52:23;100139.13;;;4.69;99.75
52469;BME280;38381;53.688;10.776;2023-01-30T03:57:24;100111.16;;;4.82;99.54
52469;BME280;38381;53.688;10.776;2023-01-30T04:02:24;100117.16;;;4.83;99.58
52469;BME280;38381;53.688;10.776;2023-01-30T04:07:27;100120.75;;;4.91;99.51
52469;BME280;38381;53.688;10.776;2023-01-30T04:12:28;100119.03;;;4.92;99.96
52469;BME280;38381;53.688;10.776;2023-01-30T04:17:29;100120.63;;;4.85;99.69
52469;BME280;38381;53.688;10.776;2023-01-30T04:22:29;100096.00;;;4.96;99.52
52469;BME280;38381;53.688;10.776;2023-01-30T04:27:30;100107.06;;;4.94;100.00
52469;BME280;38381;53.688;10.776;2023-01-30T04:32:30;100105.41;;;4.96;99.37
52469;BME280;38381;53.688;10.776;2023-01-30T04:37:30;100127.59;;;4.91;98.72
52469;BME280;38381;53.688;10.776;2023-01-30T04:42:31;100125.09;;;4.95;97.48
52469;BME280;38381;53.688;10.776;2023-01-30T04:47:31;100124.34;;;5.01;95.52
52469;BME280;38381;53.688;10.776;2023-01-30T04:52:32;100108.09;;;5.00;95.81
52469;BME280;38381;53.688;10.776;2023-01-30T04:57:32;100101.09;;;4.93;95.90
52469;BME280;38381;53.688;10.776;2023-01-30T05:02:32;100092.31;;;4.83;95.79
52469;BME280;38381;53.688;10.776;2023-01-30T05:07:33;100093.09;;;4.78;95.59
52469;BME280;38381;53.688;10.776;2023-01-30T05:12:33;100092.31;;;4.83;95.22
52469;BME280;38381;53.688;10.776;2023-01-30T05:17:34;100075.25;;;4.86;94.61
52469;BME280;38381;53.688;10.776;2023-01-30T05:22:34;100062.09;;;4.69;94.46
52469;BME280;38381;53.688;10.776;2023-01-30T05:27:35;100080.94;;;4.69;94.43
52469;BME280;38381;53.688;10.776;2023-01-30T05:32:35;100089.47;;;4.68;94.06
52469;BME280;38381;53.688;10.776;2023-01-30T05:37:36;100091.13;;;4.64;93.87
52469;BME280;38381;53.688;10.776;2023-01-30T05:42:37;100093.53;;;4.55;93.90
52469;BME280;38381;53.688;10.776;2023-01-30T05:47:37;100093.31;;;4.46;94.19
52469;BME280;38381;53.688;10.776;2023-01-30T05:52:37;100092.47;;;4.46;94.52
52469;BME280;38381;53.688;10.776;2023-01-30T05:57:38;100105.59;;;4.59;93.68
52469;BME280;38381;53.688;10.776;2023-01-30T06:02:38;100108.03;;;4.53;94.27
52469;BME280;38381;53.688;10.776;2023-01-30T06:07:38;100107.38;;;4.63;94.61
52469;BME280;38381;53.688;10.776;2023-01-30T06:12:39;100094.47;;;4.60;94.85
52469;BME280;38381;53.688;10.776;2023-01-30T06:17:42;100091.28;;;4.72;94.82
52469;BME280;38381;53.688;10.776;2023-01-30T06:22:43;100091.34;;;4.77;94.41
52469;BME280;38381;53.688;10.776;2023-01-30T06:27:44;100099.13;;;4.80;94.71
52469;BME280;38381;53.688;10.776;2023-01-30T06:32:49;100102.56;;;4.80;94.46
52469;BME280;38381;53.688;10.776;2023-01-30T06:37:50;100098.25;;;4.79;93.72
52469;BME280;38381;53.688;10.776;2023-01-30T06:42:51;100102.59;;;4.82;93.31
52469;BME280;38381;53.688;10.776;2023-01-30T06:47:53;100096.59;;;4.83;92.71
52469;BME280;38381;53.688;10.776;2023-01-30T06:52:54;100104.31;;;4.83;93.02
52469;BME280;38381;53.688;10.776;2023-01-30T06:58:06;100096.44;;;4.75;93.16
52469;BME280;38381;53.688;10.776;2023-01-30T07:03:14;100098.84;;;4.66;92.81
52469;BME280;38381;53.688;10.776;2023-01-30T07:08:15;100099.13;;;4.81;92.47
52469;BME280;38381;53.688;10.776;2023-01-30T07:13:15;100098.03;;;4.69;92.63
52469;BME280;38381;53.688;10.776;2023-01-30T07:18:16;100087.72;;;4.66;92.79
52469;BME280;38381;53.688;10.776;2023-01-30T07:23:16;100101.47;;;4.69;93.15
52469;BME280;38381;53.688;10.776;2023-01-30T07:28:17;100104.06;;;4.71;92.68
52469;BME280;38381;53.688;10.776;2023-01-30T07:33:17;100112.75;;;4.77;92.04
52469;BME280;38381;53.688;10.776;2023-01-30T07:38:18;100107.63;;;4.76;92.24
52469;BME280;38381;53.688;10.776;2023-01-30T07:43:19;100104.16;;;4.74;92.27
52469;BME280;38381;53.688;10.776;2023-01-30T07:48:20;100111.88;;;4.75;92.10
52469;BME280;38381;53.688;10.776;2023-01-30T07:53:20;100097.22;;;4.71;91.62
52469;BME280;38381;53.688;10.776;2023-01-30T07:58:20;100107.75;;;4.82;91.50
52469;BME280;38381;53.688;10.776;2023-01-30T08:03:21;100100.84;;;4.81;90.51
52469;BME280;38381;53.688;10.776;2023-01-30T08:08:21;100098.09;;;4.70;90.94
52469;BME280;38381;53.688;10.776;2023-01-30T08:13:22;100094.84;;;4.80;90.31
52469;BME280;38381;53.688;10.776;2023-01-30T08:18:22;100097.44;;;4.80;89.86
52469;BME280;38381;53.688;10.776;2023-01-30T08:23:23;100106.72;;;4.75;90.14
52469;BME280;38381;53.688;10.776;2023-01-30T08:28:24;100098.25;;;4.78;90.04
52469;BME280;38381;53.688;10.776;2023-01-30T08:33:24;100113.53;;;4.72;89.54
52469;BME280;38381;53.688;10.776;2023-01-30T08:38:25;100111.97;;;4.80;88.26
52469;BME280;38381;53.688;10.776;2023-01-30T08:43:26;100093.72;;;4.66;86.11
52469;BME280;38381;53.688;10.776;2023-01-30T08:48:26;100096.22;;;4.61;85.38
52469;BME280;38381;53.688;10.776;2023-01-30T08:53:26;100106.66;;;4.71;87.74
52469;BME280;38381;53.688;10.776;2023-01-30T08:58:27;100095.31;;;4.59;88.32
52469;BME280;38381;53.688;10.776;2023-01-30T09:03:27;100105.72;;;4.66;87.92
52469;BME280;38381;53.688;10.776;2023-01-30T09:08:27;100099.91;;;4.76;88.36
52469;BME280;38381;53.688;10.776;2023-01-30T09:13:28;100104.28;;;4.81;88.56
52469;BME280;38381;53.688;10.776;2023-01-30T09:18:30;100082.88;;;4.81;87.81
52469;BME280;38381;53.688;10.776;2023-01-30T09:23:30;100091.34;;;4.77;86.47
52469;BME280;38381;53.688;10.776;2023-01-30T09:28:31;100091.88;;;5.04;86.66
52469;BME280;38381;53.688;10.776;2023-01-30T09:33:31;100095.13;;;4.94;88.87
52469;BME280;38381;53.688;10.776;2023-01-30T09:38:31;100075.56;;;5.04;90.04
52469;BME280;38381;53.688;10.776;2023-01-30T09:43:42;100070.53;;;5.09;89.77
52469;BME280;38381;53.688;10.776;2023-01-30T09:49:08;100057.31;;;5.39;88.03
52469;BME280;38381;53.688;10.776;2023-01-30T09:54:20;100065.25;;;5.53;85.92
52469;BME280;38381;53.688;10.776;2023-01-30T09:59:31;100038.81;;;5.60;84.77
52469;BME280;38381;53.688;10.776;2023-01-30T10:04:39;100039.59;;;5.56;84.12
52469;BME280;38381;53.688;10.776;2023-01-30T10:10:01;100043.88;;;5.57;83.13
52469;BME280;38381;53.688;10.776;2023-01-30T10:15:41;100079.84;;;5.54;83.34
52469;BME280;38381;53.688;10.776;2023-01-30T10:25:57;100030.72;;;5.35;83.22
52469;BME280;38381;53.688;10.776;2023-01-30T10:31:05;100033.28;;;5.35;84.55
52469;BME280;38381;53.688;10.776;2023-01-30T10:36:15;100027.97;;;5.26;84.67
52469;BME280;38381;53.688;10.776;2023-01-30T10:41:27;100018.44;;;5.19;83.78
52469;BME280;38381;53.688;10.776;2023-01-30T10:58:12;100028.72;;;5.19;85.40
52469;BME280;38381;53.688;10.776;2023-01-30T11:03:18;100038.91;;;5.13;87.48
52469;BME280;38381;53.688;10.776;2023-01-30T11:08:26;100018.03;;;4.94;87.49
52469;BME280;38381;53.688;10.776;2023-01-30T11:13:29;100017.63;;;4.73;88.90
52469;BME280;38381;53.688;10.776;2023-01-30T11:18:30;100044.06;;;4.67;90.54
52469;BME280;38381;53.688;10.776;2023-01-30T11:23:33;100057.25;;;4.40;91.04
52469;BME280;38381;53.688;10.776;2023-01-30T11:28:39;100070.44;;;4.14;90.94
52469;BME280;38381;53.688;10.776;2023-01-30T11:33:40;100084.94;;;4.12;91.08
52469;BME280;38381;53.688;10.776;2023-01-30T11:38:54;100055.91;;;3.77;90.67
52469;BME280;38381;53.688;10.776;2023-01-30T11:44:02;100058.59;;;3.81;90.49
52469;BME280;38381;53.688;10.776;2023-01-30T11:49:11;100068.84;;;3.81;91.64
52469;BME280;38381;53.688;10.776;2023-01-30T11:54:15;100055.03;;;3.76;91.80
52469;BME280;38381;53.688;10.776;2023-01-30T11:59:33;100049.06;;;3.76;91.21
52469;BME280;38381;53.688;10.776;2023-01-30T12:04:37;100038.56;;;3.65;91.35
52469;BME280;38381;53.688;10.776;2023-01-30T12:09:38;100039.75;;;3.79;91.93
52469;BME280;38381;53.688;10.776;2023-01-30T12:14:44;100027.19;;;3.93;92.57
52469;BME280;38381;53.688;10.776;2023-01-30T12:19:55;100034.28;;;4.05;91.92
52469;BME280;38381;53.688;10.776;2023-01-30T12:25:00;100016.75;;;4.25;91.44
52469;BME280;38381;53.688;10.776;2023-01-30T12:30:09;100017.69;;;4.30;90.27
52469;BME280;38381;53.688;10.776;2023-01-30T12:35:17;100021.31;;;4.40;89.91
52469;BME280;38381;53.688;10.776;2023-01-30T12:45:31;100006.75;;;4.40;89.83
52469;BME280;38381;53.688;10.776;2023-01-30T13:01:35;100013.41;;;4.75;87.72
52469;BME280;38381;53.688;10.776;2023-01-30T13:11:57;100046.31;;;4.94;86.03
52469;BME280;38381;53.688;10.776;2023-01-30T13:17:25;100045.41;;;4.92;85.98
52469;BME280;38381;53.688;10.776;2023-01-30T13:27:43;100071.06;;;4.91;84.60
52469;BME280;38381;53.688;10.776;2023-01-30T13:32:48;100067.72;;;4.95;83.29
52469;BME280;38381;53.688;10.776;2023-01-30T13:37:49;100078.97;;;5.01;83.60
52469;BME280;38381;53.688;10.776;2023-01-30T13:43:05;100079.16;;;5.12;83.56
52469;BME280;38381;53.688;10.776;2023-01-30T13:59:36;100090.66;;;4.86;86.33
52469;BME280;38381;53.688;10.776;2023-01-30T14:04:46;100105.75;;;4.69;88.37
52469;BME280;38381;53.688;10.776;2023-01-30T14:20:18;100120.63;;;4.85;90.73
52469;BME280;38381;53.688;10.776;2023-01-30T14:51:23;100167.03;;;4.93;90.90
52469;BME280;38381;53.688;10.776;2023-01-30T15:07:13;100211.91;;;5.09;86.43
52469;BME280;38381;53.688;10.776;2023-01-30T15:12:18;100219.69;;;5.13;85.61
52469;BME280;38381;53.688;10.776;2023-01-30T15:33:57;100290.94;;;5.20;80.49
52469;BME280;38381;53.688;10.776;2023-01-30T15:39:03;100297.75;;;5.17;78.66
52469;BME280;38381;53.688;10.776;2023-01-30T15:54:35;100337.78;;;5.07;76.98
52469;BME280;38381;53.688;10.776;2023-01-30T15:59:37;100361.88;;;5.12;77.61
52469;BME280;38381;53.688;10.776;2023-01-30T16:04:39;100372.97;;;5.10;77.49
52469;BME280;38381;53.688;10.776;2023-01-30T16:09:39;100390.06;;;5.08;78.41
52469;BME280;38381;53.688;10.776;2023-01-30T16:14:39;100414.19;;;5.13;78.67
52469;BME280;38381;53.688;10.776;2023-01-30T16:19:41;100414.09;;;5.10;78.59
52469;BME280;38381;53.688;10.776;2023-01-30T16:24:44;100428.47;;;5.01;78.54
52469;BME280;38381;53.688;10.776;2023-01-30T16:29:48;100451.69;;;5.04;77.79
52469;BME280;38381;53.688;10.776;2023-01-30T16:34:50;100460.06;;;4.97;76.76
52469;BME280;38381;53.688;10.776;2023-01-30T16:40:18;100483.25;;;4.99;77.28
52469;BME280;38381;53.688;10.776;2023-01-30T16:50:33;100513.88;;;4.91;77.16
52469;BME280;38381;53.688;10.776;2023-01-30T16:55:33;100521.75;;;4.97;77.00
52469;BME280;38381;53.688;10.776;2023-01-30T17:05:41;100543.00;;;4.90;76.54
52469;BME280;38381;53.688;10.776;2023-01-30T17:10:53;100560.13;;;4.91;76.89
52469;BME280;38381;53.688;10.776;2023-01-30T17:21:25;100582.41;;;4.91;77.74
52469;BME280;38381;53.688;10.776;2023-01-30T17:26:26;100603.59;;;4.82;77.88
52469;BME280;38381;53.688;10.776;2023-01-30T17:31:27;100590.56;;;4.76;77.16
52469;BME280;38381;53.688;10.776;2023-01-30T17:36:29;100604.97;;;4.71;77.27
52469;BME280;38381;53.688;10.776;2023-01-30T17:41:29;100629.69;;;4.66;77.87
52469;BME280;38381;53.688;10.776;2023-01-30T17:46:35;100635.81;;;4.71;78.33
52469;BME280;38381;53.688;10.776;2023-01-30T17:51:36;100631.41;;;4.67;78.21
52469;BME280;38381;53.688;10.776;2023-01-30T17:56:38;100641.16;;;4.78;78.78
52469;BME280;38381;53.688;10.776;2023-01-30T18:01:40;100653.78;;;4.71;78.39
52469;BME280;38381;53.688;10.776;2023-01-30T18:06:43;100663.88;;;4.64;79.14
52469;BME280;38381;53.688;10.776;2023-01-30T18:11:45;100683.63;;;4.66;78.69
52469;BME280;38381;53.688;10.776;2023-01-30T18:16:46;100689.63;;;4.66;76.89
52469;BME280;38381;53.688;10.776;2023-01-30T18:21:47;100702.16;;;4.55;77.67
52469;BME280;38381;53.688;10.776;2023-01-30T18:26:47;100707.06;;;4.48;77.33
52469;BME280;38381;53.688;10.776;2023-01-30T18:31:48;100721.81;;;4.55;77.24
52469;BME280;38381;53.688;10.776;2023-01-30T18:36:48;100735.31;;;4.48;76.26
52469;BME280;38381;53.688;10.776;2023-01-30T18:41:48;100756.81;;;4.51;76.48
52469;BME280;38381;53.688;10.776;2023-01-30T18:46:49;100740.38;;;4.46;75.64
52469;BME280;38381;53.688;10.776;2023-01-30T18:51:50;100767.47;;;4.36;76.25
52469;BME280;38381;53.688;10.776;2023-01-30T18:56:51;100773.81;;;4.48;76.53
52469;BME280;38381;53.688;10.776;2023-01-30T19:01:51;100783.06;;;4.42;76.68
52469;BME280;38381;53.688;10.776;2023-01-30T19:06:52;100794.03;;;4.37;77.20
52469;BME280;38381;53.688;10.776;2023-01-30T19:11:53;100812.53;;;4.27;77.16
52469;BME280;38381;53.688;10.776;2023-01-30T19:17:13;100826.75;;;4.17;77.11
52469;BME280;38381;53.688;10.776;2023-01-30T19:22:15;100827.72;;;4.20;76.73
52469;BME280;38381;53.688;10.776;2023-01-30T19:27:15;100846.81;;;4.03;77.08
52469;BME280;38381;53.688;10.776;2023-01-30T19:32:16;100858.28;;;3.89;77.38
52469;BME280;38381;53.688;10.776;2023-01-30T19:37:16;100872.25;;;3.97;77.12
52469;BME280;38381;53.688;10.776;2023-01-30T19:42:17;100866.31;;;3.98;76.54
52469;BME280;38381;53.688;10.776;2023-01-30T19:47:17;100890.13;;;3.94;76.52
52469;BME280;38381;53.688;10.776;2023-01-30T19:52:21;100894.31;;;3.92;76.49
52469;BME280;38381;53.688;10.776;2023-01-30T19:57:21;100900.91;;;3.85;75.96
52469;BME280;38381;53.688;10.776;2023-01-30T20:02:21;100897.63;;;3.89;75.69
52469;BME280;38381;53.688;10.776;2023-01-30T20:07:22;100918.63;;;3.77;75.86
52469;BME280;38381;53.688;10.776;2023-01-30T20:12:22;100930.66;;;3.80;75.09
52469;BME280;38381;53.688;10.776;2023-01-30T20:17:23;100946.00;;;3.78;74.78
52469;BME280;38381;53.688;10.776;2023-01-30T20:22:23;100947.00;;;3.59;75.12
52469;BME280;38381;53.688;10.776;2023-01-30T20:27:24;100949.44;;;3.56;73.75
52469;BME280;38381;53.688;10.776;2023-01-30T20:32:24;100953.94;;;3.62;73.90
52469;BME280;38381;53.688;10.776;2023-01-30T20:37:25;100971.78;;;3.59;74.51
52469;BME280;38381;53.688;10.776;2023-01-30T20:42:26;100988.97;;;3.61;74.21
52469;BME280;38381;53.688;10.776;2023-01-30T20:47:27;100982.03;;;3.59;74.67
52469;BME280;38381;53.688;10.776;2023-01-30T20:52:27;100991.88;;;3.48;75.26
52469;BME280;38381;53.688;10.776;2023-01-30T20:57:28;100995.78;;;3.38;75.69
52469;BME280;38381;53.688;10.776;2023-01-30T21:02:29;101010.47;;;3.42;75.92
52469;BME280;38381;53.688;10.776;2023-01-30T21:07:31;101007.06;;;3.43;76.81
52469;BME280;38381;53.688;10.776;2023-01-30T21:12:32;101013.66;;;3.37;77.87
52469;BME280;38381;53.688;10.776;2023-01-30T21:17:32;101018.03;;;3.39;77.49
52469;BME280;38381;53.688;10.776;2023-01-30T21:22:32;101011.97;;;3.37;78.29
52469;BME280;38381;53.688;10.776;2023-01-30T21:27:33;101003.53;;;3.19;77.70
52469;BME280;38381;53.688;10.776;2023-01-30T21:32:33;101009.06;;;3.28;77.68
52469;BME280;38381;53.688;10.776;2023-01-30T21:37:34;101016.44;;;3.20;77.06
52469;BME280;38381;53.688;10.776;2023-01-30T21:42:53;101024.34;;;3.27;77.32
52469;BME280;38381;53.688;10.776;2023-01-30T21:48:12;101023.53;;;3.28;77.67
52469;BME280;38381;53.688;10.776;2023-01-30T21:53:12;101040.09;;;3.36;77.67
52469;BME280;38381;53.688;10.776;2023-01-30T21:58:13;101052.56;;;3.27;78.00
52469;BME280;38381;53.688;10.776;2023-01-30T22:03:13;101061.94;;;3.26;78.07
52469;BME280;38381;53.688;10.776;2023-01-30T22:08:14;101038.81;;;3.25;78.24
52469;BME280;38381;53.688;10.776;2023-01-30T22:13:14;101071.19;;;3.22;78.81
52469;BME280;38381;53.688;10.776;2023-01-30T22:18:14;101077.06;;;3.20;78.78
52469;BME280;38381;53.688;10.776;2023-01-30T22:23:15;101093.69;;;3.30;78.07
52469;BME280;38381;53.688;10.776;2023-01-30T22:28:15;101098.00;;;3.10;79.20
52469;BME280;38381;53.688;10.776;2023-01-30T22:33:16;101111.78;;;3.13;79.42
52469;BME280;38381;53.688;10.776;2023-01-30T22:38:17;101107.25;;;3.06;79.50
52469;BME280;38381;53.688;10.776;2023-01-30T22:43:19;101119.22;;;3.07;79.20
52469;BME280;38381;53.688;10.776;2023-01-30T22:48:19;101116.47;;;3.02;79.54
52469;BME280;38381;53.688;10.776;2023-01-30T22:53:20;101123.47;;;3.07;79.97
52469;BME280;38381;53.688;10.776;2023-01-30T22:58:20;101131.38;;;2.92;80.12
52469;BME280;38381;53.688;10.776;2023-01-30T23:03:20;101128.34;;;3.00;80.25
52469;BME280;38381;53.688;10.776;2023-01-30T23:08:21;101130.78;;;2.97;80.35
52469;BME280;38381;53.688;10.776;2023-01-30T23:13:21;101123.78;;;2.93;80.55
52469;BME280;38381;53.688;10.776;2023-01-30T23:18:22;101117.03;;;2.95;80.87
52469;BME280;38381;53.688;10.776;2023-01-30T23:23:42;101118.66;;;2.93;80.49
52469;BME280;38381;53.688;10.776;2023-01-30T23:28:42;101129.16;;;2.80;81.44
52469;BME280;38381;53.688;10.776;2023-01-30T23:33:43;101126.69;;;2.81;81.41
52469;BME280;38381;53.688;10.776;2023-01-30T23:38:47;101126.69;;;2.81;81.08
52469;BME280;38381;53.688;10.776;2023-01-30T23:43:49;101131.72;;;2.80;80.71
52469;BME280;38381;53.688;10.776;2023-01-30T23:48:52;101145.63;;;2.85;80.18
52469;BME280;38381;53.688;10.776;2023-01-30T23:53:53;101152.81;;;2.74;80.68
52469;BME280;38381;53.688;10.776;2023-01-30T23:58:54;101133.50;;;2.81;80.51
